Time;durP1;ratioP1;P1;durP2;ratioP2;P2;SDS_P1;SDS_P2;PMS_P1;PMS_P2;Temp;Humidity;BMP_temperature;BMP_pressure;BME280_temperature;BME280_humidity;BME280_pressure;Samples;Min_cycle;Max_cycle;Signal;HPM_P1;HPM_P2
2023/03/29 00:00:26;;;;;;;0.35;0.35;;;6.50;99.90;;;;;;5097198;28;20044;-71
2023/03/29 00:02:55;;;;;;;0.47;0.47;;;6.50;99.90;;;;;;5095935;28;20040;-72
2023/03/29 00:05:21;;;;;;;0.35;0.35;;;6.50;99.90;;;;;;5097407;28;20486;-72
2023/03/29 00:07:52;;;;;;;0.50;0.50;;;6.40;99.90;;;;;;5095779;28;20040;-72
2023/03/29 00:10:20;;;;;;;0.40;0.40;;;6.40;99.90;;;;;;5097463;28;20040;-72
2023/03/29 00:12:45;;;;;;;0.40;0.40;;;6.30;99.90;;;;;;5095815;28;20055;-72
2023/03/29 00:15:12;;;;;;;0.50;0.50;;;6.40;99.90;;;;;;5095898;28;20414;-72
2023/03/29 00:17:37;;;;;;;0.47;0.47;;;6.40;99.90;;;;;;5095682;28;20044;-72
2023/03/29 00:20:09;;;;;;;0.40;0.40;;;6.40;99.90;;;;;;5095640;28;20040;-72
2023/03/29 00:22:38;;;;;;;0.40;0.40;;;6.40;99.90;;;;;;5095901;28;20032;-72
2023/03/29 00:25:06;;;;;;;0.40;0.40;;;6.40;99.90;;;;;;5078650;28;20085;-71
2023/03/29 00:27:32;;;;;;;0.40;0.40;;;6.40;99.90;;;;;;5095726;28;20105;-71
2023/03/29 00:29:57;;;;;;;0.40;0.40;;;6.30;99.90;;;;;;5078804;28;20357;-72
2023/03/29 00:32:23;;;;;;;0.40;0.40;;;6.30;99.90;;;;;;5078381;28;20046;-71
2023/03/29 00:34:49;;;;;;;0.40;0.40;;;6.30;99.90;;;;;;5096548;28;20051;-72
2023/03/29 00:37:17;;;;;;;0.40;0.40;;;6.30;99.90;;;;;;5078223;28;20399;-71
2023/03/29 00:39:45;;;;;;;0.30;0.30;;;6.30;99.90;;;;;;5096701;28;20044;-71
2023/03/29 00:42:13;;;;;;;0.40;0.40;;;6.30;99.90;;;;;;5095871;28;20533;-72
2023/03/29 00:45:11;;;;;;;0.40;0.40;;;6.30;99.90;;;;;;5096641;28;20040;-71
2023/03/29 00:47:38;;;;;;;0.40;0.40;;;6.30;99.90;;;;;;5072613;28;20490;-72
2023/03/29 00:50:24;;;;;;;0.40;0.40;;;6.30;99.90;;;;;;5094999;28;20043;-72
2023/03/29 00:53:16;;;;;;;0.40;0.40;;;6.30;99.90;;;;;;5095219;28;20119;-72
2023/03/29 00:55:54;;;;;;;0.40;0.40;;;6.40;99.90;;;;;;5095009;28;20059;-71
2023/03/29 00:58:25;;;;;;;0.50;0.50;;;6.20;99.90;;;;;;5094890;28;20043;-71
2023/03/29 01:01:02;;;;;;;0.30;0.30;;;6.20;99.90;;;;;;5096168;28;20111;-72
2023/03/29 01:03:40;;;;;;;0.30;0.30;;;6.30;99.90;;;;;;5096462;28;20068;-72
2023/03/29 01:06:08;;;;;;;0.40;0.40;;;6.30;99.90;;;;;;5095107;28;20127;-71
2023/03/29 01:08:42;;;;;;;0.45;0.45;;;6.30;99.90;;;;;;5096142;28;20119;-72
2023/03/29 01:11:11;;;;;;;1.15;0.50;;;6.20;99.90;;;;;;5077627;28;20040;-72
2023/03/29 01:14:29;;;;;;;0.50;0.50;;;6.20;99.90;;;;;;5096566;28;20475;-71
2023/03/29 01:16:55;;;;;;;0.40;0.40;;;6.20;99.90;;;;;;5061438;28;20074;-71
2023/03/29 01:19:26;;;;;;;0.40;0.40;;;6.20;99.90;;;;;;5095800;28;20040;-72
2023/03/29 01:22:13;;;;;;;0.50;0.50;;;6.20;99.90;;;;;;5077588;28;20119;-72
2023/03/29 01:24:47;;;;;;;0.47;0.47;;;6.20;99.90;;;;;;5094681;28;20078;-72
2023/03/29 01:27:21;;;;;;;0.32;0.32;;;6.20;99.90;;;;;;5096386;28;20050;-72
2023/03/29 01:29:53;;;;;;;0.35;0.35;;;6.20;99.90;;;;;;5077383;28;20071;-72
2023/03/29 01:32:26;;;;;;;0.40;0.40;;;6.30;99.90;;;;;;5095829;28;20032;-72
2023/03/29 01:34:58;;;;;;;0.40;0.40;;;6.20;99.90;;;;;;5095810;28;20089;-71
2023/03/29 01:37:27;;;;;;;0.40;0.40;;;6.20;99.90;;;;;;5095081;28;20492;-71
2023/03/29 01:39:53;;;;;;;0.50;0.50;;;6.20;99.90;;;;;;5095618;28;20043;-71
2023/03/29 01:42:30;;;;;;;0.50;0.50;;;6.20;99.90;;;;;;5094231;28;20396;-72
2023/03/29 01:45:10;;;;;;;0.40;0.40;;;6.20;99.90;;;;;;5094827;28;20047;-71
2023/03/29 01:47:42;;;;;;;0.45;0.45;;;6.20;99.90;;;;;;5095227;28;20484;-72
2023/03/29 01:50:22;;;;;;;0.47;0.47;;;6.20;99.90;;;;;;5095149;28;20043;-72
2023/03/29 01:53:06;;;;;;;0.40;0.40;;;6.20;99.90;;;;;;5095414;28;20365;-72
2023/03/29 01:55:37;;;;;;;0.50;0.50;;;6.20;99.90;;;;;;5095359;28;20036;-72
2023/03/29 01:58:04;;;;;;;0.40;0.40;;;6.20;99.90;;;;;;5093623;28;20093;-72
2023/03/29 02:00:33;;;;;;;0.40;0.40;;;6.20;99.90;;;;;;5093672;28;20078;-71
2023/03/29 02:03:03;;;;;;;0.40;0.40;;;6.10;99.90;;;;;;5093832;28;20211;-72
2023/03/29 02:05:30;;;;;;;0.40;0.40;;;6.10;99.90;;;;;;5093690;28;20055;-72
2023/03/29 02:07:58;;;;;;;0.40;0.40;;;6.10;99.90;;;;;;5093540;28;20120;-72
2023/03/29 02:10:24;;;;;;;0.40;0.40;;;6.10;99.90;;;;;;5094729;28;20570;-72
2023/03/29 02:12:50;;;;;;;0.30;0.30;;;6.20;99.90;;;;;;5094902;28;20051;-72
2023/03/29 02:15:18;;;;;;;0.45;0.45;;;6.10;99.90;;;;;;5093643;28;20414;-72
2023/03/29 02:17:45;;;;;;;0.50;0.50;;;6.10;99.90;;;;;;5094842;28;20373;-72
2023/03/29 02:20:28;;;;;;;0.40;0.40;;;6.20;99.90;;;;;;5093174;28;20040;-71
2023/03/29 02:23:07;;;;;;;0.35;0.35;;;6.10;99.90;;;;;;5094650;28;20043;-72
2023/03/29 02:25:36;;;;;;;0.55;0.55;;;6.20;99.90;;;;;;5094591;28;20082;-72
2023/03/29 02:28:03;;;;;;;0.50;0.50;;;6.20;99.90;;;;;;5094552;28;20060;-72
2023/03/29 02:31:06;;;;;;;0.50;0.50;;;6.20;99.90;;;;;;5093161;28;20048;-71
2023/03/29 02:33:50;;;;;;;0.57;0.57;;;6.20;99.90;;;;;;5094364;28;20440;-72
2023/03/29 02:36:46;;;;;;;0.47;0.47;;;6.10;99.90;;;;;;5094079;28;20040;-71
2023/03/29 02:39:14;;;;;;;0.50;0.50;;;6.10;99.90;;;;;;5109214;28;20458;-72
2023/03/29 02:41:42;;;;;;;0.50;0.50;;;6.10;99.90;;;;;;5093101;28;20048;-72
2023/03/29 02:44:12;;;;;;;0.40;0.40;;;6.10;99.90;;;;;;5093949;28;20039;-72
2023/03/29 02:46:41;;;;;;;0.45;0.45;;;6.10;99.90;;;;;;5093298;28;20432;-72
2023/03/29 02:49:09;;;;;;;0.50;0.50;;;6.10;99.90;;;;;;5076179;28;20040;-72
2023/03/29 02:51:36;;;;;;;0.50;0.50;;;6.10;99.90;;;;;;5093964;28;20129;-72
2023/03/29 02:54:07;;;;;;;0.55;0.55;;;6.20;99.90;;;;;;5094297;28;20134;-72
2023/03/29 02:56:54;;;;;;;0.50;0.50;;;6.20;99.90;;;;;;5094068;28;20149;-72
2023/03/29 02:59:21;;;;;;;0.50;0.50;;;6.10;99.90;;;;;;5075672;28;20044;-71
2023/03/29 03:01:47;;;;;;;0.40;0.40;;;6.20;99.90;;;;;;5092563;28;20111;-71
2023/03/29 03:04:14;;;;;;;0.40;0.40;;;6.10;99.90;;;;;;5092545;28;20046;-72
2023/03/29 03:06:40;;;;;;;0.50;0.50;;;6.10;99.90;;;;;;5092442;28;20511;-72
2023/03/29 03:09:06;;;;;;;0.50;0.50;;;6.20;99.90;;;;;;5093735;28;20039;-72
2023/03/29 03:11:32;;;;;;;0.50;0.50;;;6.20;99.90;;;;;;5092496;28;20036;-72
2023/03/29 03:13:59;;;;;;;0.60;0.60;;;6.10;99.90;;;;;;5126565;27;20046;-71
2023/03/29 03:16:25;;;;;;;0.50;0.50;;;6.20;99.90;;;;;;5092339;28;20085;-72
2023/03/29 03:18:52;;;;;;;0.50;0.50;;;6.10;99.90;;;;;;5075725;28;20102;-72
2023/03/29 03:21:18;;;;;;;0.60;0.60;;;6.10;99.90;;;;;;5092273;28;20048;-71
2023/03/29 03:23:46;;;;;;;0.70;0.70;;;6.20;99.90;;;;;;5092241;28;20071;-72
2023/03/29 03:26:12;;;;;;;0.50;0.50;;;6.10;99.90;;;;;;5093776;28;20028;-72
2023/03/29 03:28:38;;;;;;;0.35;0.35;;;6.10;99.90;;;;;;5093410;28;20051;-72
2023/03/29 03:31:05;;;;;;;0.50;0.50;;;6.30;99.90;;;;;;5093381;28;20522;-72
2023/03/29 03:33:30;;;;;;;0.50;0.50;;;6.20;99.90;;;;;;5093468;28;20032;-72
2023/03/29 03:36:01;;;;;;;0.60;0.60;;;6.20;99.90;;;;;;5092313;28;20461;-71
2023/03/29 03:38:28;;;;;;;0.57;0.57;;;6.20;99.90;;;;;;5091810;28;20517;-72
2023/03/29 03:40:58;;;;;;;0.55;0.55;;;6.20;99.90;;;;;;5092257;28;20044;-71
2023/03/29 03:43:24;;;;;;;0.52;0.52;;;6.20;99.90;;;;;;5092087;28;20123;-72
2023/03/29 03:45:50;;;;;;;0.60;0.60;;;6.20;99.90;;;;;;5093582;28;20094;-72
2023/03/29 03:48:16;;;;;;;0.60;0.60;;;6.20;99.90;;;;;;5093501;28;20040;-72
2023/03/29 03:50:57;;;;;;;0.60;0.60;;;6.20;99.90;;;;;;5091923;28;20036;-72
2023/03/29 03:53:25;;;;;;;0.52;0.52;;;6.10;99.90;;;;;;5092833;28;20095;-71
2023/03/29 03:55:52;;;;;;;0.57;0.57;;;6.20;99.90;;;;;;5091969;28;20043;-71
2023/03/29 03:58:18;;;;;;;0.55;0.55;;;6.20;99.90;;;;;;5125918;28;20522;-72
2023/03/29 04:00:47;;;;;;;0.43;0.43;;;6.20;99.90;;;;;;5126009;28;20028;-72
2023/03/29 04:03:12;;;;;;;0.50;0.50;;;6.20;99.90;;;;;;5125805;28;20054;-71
2023/03/29 04:05:43;;;;;;;0.50;0.50;;;6.20;99.90;;;;;;5091795;28;20071;-71
2023/03/29 04:08:11;;;;;;;0.40;0.40;;;6.20;99.90;;;;;;5091793;28;20048;-72
2023/03/29 04:10:38;;;;;;;0.50;0.50;;;6.20;99.90;;;;;;5093332;28;20035;-72
2023/03/29 04:13:04;;;;;;;0.50;0.50;;;6.30;99.90;;;;;;5093009;28;20549;-72
2023/03/29 04:15:31;;;;;;;0.50;0.50;;;6.30;99.90;;;;;;5092913;28;20090;-72
2023/03/29 04:17:58;;;;;;;0.52;0.52;;;6.20;99.90;;;;;;5092793;28;20042;-72
2023/03/29 04:20:25;;;;;;;0.50;0.50;;;6.20;99.90;;;;;;5092020;28;20384;-71
2023/03/29 04:22:51;;;;;;;0.50;0.50;;;6.20;99.90;;;;;;5091711;28;20123;-71
2023/03/29 04:25:17;;;;;;;0.60;0.60;;;6.20;99.90;;;;;;5091607;28;20119;-72
2023/03/29 04:27:44;;;;;;;0.60;0.60;;;6.20;99.90;;;;;;5093155;28;20082;-72
2023/03/29 04:30:11;;;;;;;0.60;0.60;;;6.20;99.90;;;;;;5091621;28;20043;-71
2023/03/29 04:32:37;;;;;;;0.50;0.50;;;6.20;99.90;;;;;;5093101;28;20048;-72
2023/03/29 04:35:03;;;;;;;0.55;0.55;;;6.20;99.90;;;;;;5091827;28;20047;-72
2023/03/29 04:37:31;;;;;;;0.50;0.50;;;6.20;99.90;;;;;;5092735;28;20100;-72
2023/03/29 04:39:59;;;;;;;0.55;0.55;;;6.20;99.90;;;;;;5091513;28;20633;-72
2023/03/29 04:42:26;;;;;;;0.50;0.50;;;6.30;99.90;;;;;;5093038;28;20089;-72
2023/03/29 04:44:52;;;;;;;0.50;0.50;;;6.30;99.90;;;;;;5093117;28;20048;-72
2023/03/29 04:47:18;;;;;;;0.52;0.52;;;6.30;99.90;;;;;;5096714;28;20360;-72
2023/03/29 04:49:44;;;;;;;0.60;0.60;;;6.20;99.90;;;;;;5096334;28;20036;-73
2023/03/29 04:52:10;;;;;;;0.57;0.57;;;6.20;99.90;;;;;;5096295;28;20035;-72
2023/03/29 04:54:36;;;;;;;0.60;0.60;;;6.20;99.90;;;;;;5078091;28;20046;-72
2023/03/29 04:57:06;;;;;;;0.50;0.50;;;6.20;99.90;;;;;;5128923;27;20119;-72
2023/03/29 04:59:31;;;;;;;0.50;0.50;;;6.20;99.90;;;;;;5094948;28;20036;-71
2023/03/29 05:01:57;;;;;;;0.55;0.55;;;6.10;99.90;;;;;;5095149;28;20085;-71
2023/03/29 05:04:23;;;;;;;0.63;0.63;;;6.20;99.90;;;;;;5094897;28;20040;-72
2023/03/29 05:06:49;;;;;;;0.55;0.55;;;6.10;99.90;;;;;;5096380;28;20078;-72
2023/03/29 05:09:15;;;;;;;0.60;0.60;;;6.20;99.90;;;;;;5096302;28;20063;-72
2023/03/29 05:11:41;;;;;;;0.68;0.68;;;6.10;99.90;;;;;;5094842;28;20043;-72
2023/03/29 05:14:08;;;;;;;0.60;0.60;;;6.10;99.90;;;;;;5094638;28;20040;-71
2023/03/29 05:16:34;;;;;;;0.60;0.60;;;6.10;99.90;;;;;;5094557;28;20051;-72
2023/03/29 05:19:00;;;;;;;0.50;0.50;;;6.10;99.90;;;;;;5077629;28;20040;-72
2023/03/29 05:21:27;;;;;;;0.60;0.60;;;6.10;99.90;;;;;;5077569;28;20055;-74
2023/03/29 05:23:53;;;;;;;0.57;0.57;;;6.10;99.90;;;;;;5094384;28;20065;-73
2023/03/29 05:26:22;;;;;;;0.50;0.50;;;6.10;99.90;;;;;;5094647;28;20536;-72
2023/03/29 05:28:49;;;;;;;0.60;0.60;;;6.20;99.90;;;;;;5094650;28;20428;-71
2023/03/29 05:31:15;;;;;;;0.50;0.50;;;6.20;99.90;;;;;;5095482;28;20051;-71
2023/03/29 05:33:41;;;;;;;0.55;0.55;;;6.20;99.90;;;;;;5095807;28;20044;-72
2023/03/29 05:36:09;;;;;;;0.60;0.60;;;6.20;99.90;;;;;;5095754;28;20089;-71
2023/03/29 05:38:35;;;;;;;0.52;0.52;;;6.20;99.90;;;;;;5095674;28;20142;-72
2023/03/29 05:41:01;;;;;;;0.50;0.50;;;6.20;99.90;;;;;;5077322;28;20531;-71
2023/03/29 05:43:27;;;;;;;0.50;0.50;;;6.10;99.90;;;;;;5095355;28;20047;-72
2023/03/29 05:45:53;;;;;;;0.70;0.70;;;6.10;99.90;;;;;;5094244;28;20456;-73
2023/03/29 05:48:21;;;;;;;0.60;0.60;;;6.20;99.90;;;;;;5093985;28;20040;-74
2023/03/29 05:50:52;;;;;;;0.60;0.60;;;6.10;99.90;;;;;;5095562;28;20040;-70
2023/03/29 05:53:18;;;;;;;0.75;0.60;;;6.00;99.90;;;;;;5128349;27;20115;-68
2023/03/29 05:55:45;;;;;;;0.50;0.50;;;6.00;99.90;;;;;;5095417;28;20111;-74
2023/03/29 05:58:12;;;;;;;0.60;0.60;;;5.90;99.90;;;;;;5093733;28;20048;-70
2023/03/29 06:00:38;;;;;;;0.55;0.55;;;6.00;99.90;;;;;;5093843;28;20089;-71
2023/03/29 06:03:06;;;;;;;0.70;0.70;;;6.00;99.90;;;;;;5093700;28;20514;-69
2023/03/29 06:05:32;;;;;;;0.50;0.50;;;5.80;99.90;;;;;;5094879;28;20036;-70
2023/03/29 06:07:58;;;;;;;0.73;0.73;;;5.90;99.90;;;;;;5094754;28;20055;-70
2023/03/29 06:10:24;;;;;;;0.70;0.70;;;6.00;99.90;;;;;;5093552;28;20044;-70
2023/03/29 06:12:50;;;;;;;0.73;0.70;;;5.80;99.90;;;;;;5093514;28;20044;-69
2023/03/29 06:15:16;;;;;;;0.70;0.70;;;5.90;99.90;;;;;;5094961;28;20048;-69
2023/03/29 06:17:44;;;;;;;0.70;0.70;;;5.70;99.90;;;;;;5093399;28;20515;-69
2023/03/29 06:20:11;;;;;;;0.60;0.60;;;5.90;99.90;;;;;;5093339;28;20040;-69
2023/03/29 06:22:41;;;;;;;0.50;0.50;;;5.90;99.90;;;;;;5093591;28;20380;-71
2023/03/29 06:25:09;;;;;;;;;;;5.80;99.90;;;;;;5093674;28;20051;-71
2023/03/29 06:27:35;;;;;;;0.50;0.50;;;6.00;99.90;;;;;;5093205;28;19969;-71
2023/03/29 06:30:01;;;;;;;0.65;0.65;;;6.00;99.90;;;;;;5076822;28;20044;-71
2023/03/29 06:32:27;;;;;;;0.70;0.70;;;6.00;99.90;;;;;;5093346;28;20480;-74
2023/03/29 06:34:53;;;;;;;0.68;0.68;;;6.00;99.90;;;;;;5093454;28;20055;-73
2023/03/29 06:37:20;;;;;;;0.60;0.60;;;5.90;99.90;;;;;;5092777;28;20518;-71
2023/03/29 06:39:51;;;;;;;0.70;0.70;;;6.00;99.90;;;;;;5094544;28;20043;-69
2023/03/29 06:42:18;;;;;;;0.70;0.70;;;6.00;99.90;;;;;;5094634;28;20040;-69
2023/03/29 06:44:45;;;;;;;0.70;0.70;;;6.00;99.90;;;;;;5076272;28;20080;-68
2023/03/29 06:47:12;;;;;;;0.65;0.65;;;6.20;99.90;;;;;;5094101;28;20544;-68
2023/03/29 06:49:38;;;;;;;0.65;0.65;;;6.10;99.90;;;;;;5092766;28;20072;-68
2023/03/29 06:52:04;;;;;;;0.70;0.70;;;6.00;99.90;;;;;;5094359;28;20046;-68
2023/03/29 06:54:29;;;;;;;0.70;0.70;;;6.10;99.90;;;;;;5093002;28;20387;-68
2023/03/29 06:56:56;;;;;;;0.60;0.60;;;6.20;99.90;;;;;;5093961;28;20144;-68
2023/03/29 06:59:22;;;;;;;0.60;0.60;;;6.20;99.90;;;;;;5093999;28;20483;-67
2023/03/29 07:01:48;;;;;;;0.68;0.68;;;6.20;99.90;;;;;;5075807;28;20055;-67
2023/03/29 07:04:14;;;;;;;0.60;0.60;;;6.30;99.90;;;;;;5092897;28;20456;-69
2023/03/29 07:06:47;;;;;;;0.80;0.80;;;6.30;99.90;;;;;;5093776;28;20155;-69
2023/03/29 07:09:18;;;;;;;0.63;0.63;;;6.30;99.90;;;;;;5092920;28;20032;-69
2023/03/29 07:11:45;;;;;;;0.60;0.60;;;6.40;99.90;;;;;;5094086;28;20111;-70
2023/03/29 07:14:11;;;;;;;0.80;0.80;;;6.40;99.90;;;;;;5126803;27;20040;-69
2023/03/29 07:16:37;;;;;;;0.60;0.60;;;6.50;99.90;;;;;;5092426;28;20046;-70
2023/03/29 07:19:03;;;;;;;0.55;0.55;;;6.60;99.90;;;;;;5092363;28;20086;-69
2023/03/29 07:21:29;;;;;;;0.60;0.60;;;6.50;99.90;;;;;;5093709;28;20068;-70
2023/03/29 07:23:57;;;;;;;0.57;0.57;;;6.50;99.90;;;;;;5093880;28;20394;-70
2023/03/29 07:26:23;;;;;;;0.60;0.60;;;6.60;99.90;;;;;;5092308;28;20048;-70
2023/03/29 07:28:49;;;;;;;0.50;0.50;;;6.70;99.90;;;;;;5092462;28;20384;-69
2023/03/29 07:31:16;;;;;;;0.57;0.57;;;6.70;99.90;;;;;;5093768;28;20036;-70
2023/03/29 07:33:43;;;;;;;0.50;0.50;;;6.70;99.90;;;;;;5092394;28;20048;-69
2023/03/29 07:36:09;;;;;;;0.50;0.50;;;6.80;99.90;;;;;;5092133;28;20111;-69
2023/03/29 07:38:36;;;;;;;0.60;0.60;;;6.60;99.90;;;;;;5092456;28;20044;-69
2023/03/29 07:41:03;;;;;;;0.68;0.68;;;6.60;99.90;;;;;;5092344;28;20455;-70
2023/03/29 07:43:29;;;;;;;0.60;0.60;;;6.70;99.90;;;;;;5093383;28;20047;-70
2023/03/29 07:45:54;;;;;;;0.50;0.50;;;6.70;99.90;;;;;;5092051;28;20036;-69
2023/03/29 07:48:20;;;;;;;0.60;0.60;;;6.70;99.90;;;;;;5092031;28;20044;-71
2023/03/29 07:50:46;;;;;;;0.70;0.70;;;6.80;99.90;;;;;;5092849;28;20048;-70
2023/03/29 07:53:12;;;;;;;0.77;0.60;;;6.80;99.90;;;;;;5093565;28;20204;-69
2023/03/29 07:55:45;;;;;;;1.05;0.60;;;6.70;99.90;;;;;;5092342;28;20044;-69
2023/03/29 07:58:14;;;;;;;0.60;0.60;;;6.90;99.90;;;;;;5093528;28;20039;-68
2023/03/29 08:00:42;;;;;;;0.55;0.55;;;6.90;99.90;;;;;;5075491;28;20365;-69
2023/03/29 08:03:11;;;;;;;0.50;0.50;;;6.90;99.90;;;;;;5092288;28;20070;-67
2023/03/29 08:05:37;;;;;;;0.65;0.65;;;7.00;99.90;;;;;;5093733;28;20044;-68
2023/03/29 08:08:03;;;;;;;0.50;0.50;;;6.90;99.90;;;;;;5093392;28;20127;-70
2023/03/29 08:10:29;;;;;;;0.50;0.50;;;7.00;99.90;;;;;;5093408;28;20068;-69
2023/03/29 08:12:55;;;;;;;0.60;0.60;;;7.00;99.90;;;;;;5091807;28;20043;-69
2023/03/29 08:15:21;;;;;;;0.50;0.50;;;7.00;99.90;;;;;;5093312;28;20047;-68
2023/03/29 08:17:47;;;;;;;0.50;0.50;;;7.00;99.90;;;;;;5091685;28;20037;-67
2023/03/29 08:20:15;;;;;;;0.40;0.40;;;7.00;99.90;;;;;;5093999;28;20047;-67
2023/03/29 08:22:41;;;;;;;0.70;0.70;;;7.10;99.90;;;;;;5095924;28;20042;-68
2023/03/29 08:25:07;;;;;;;0.68;0.68;;;7.00;99.90;;;;;;5096628;28;20128;-68
2023/03/29 08:27:33;;;;;;;0.60;0.60;;;7.10;99.90;;;;;;5096808;28;20043;-68
2023/03/29 08:29:59;;;;;;;0.52;0.52;;;7.10;99.90;;;;;;5095525;28;20078;-68
2023/03/29 08:32:25;;;;;;;0.50;0.50;;;7.20;99.90;;;;;;5097041;28;20075;-68
2023/03/29 08:34:50;;;;;;;0.60;0.60;;;7.10;99.90;;;;;;5078552;28;20044;-68
2023/03/29 08:37:17;;;;;;;0.50;0.50;;;7.20;99.90;;;;;;5096535;28;20044;-68
2023/03/29 08:39:42;;;;;;;0.50;0.50;;;7.20;99.90;;;;;;5096668;28;20048;-67
2023/03/29 08:42:32;;;;;;;0.50;0.50;;;7.30;99.90;;;;;;5096867;28;20048;-68
2023/03/29 08:45:09;;;;;;;0.50;0.50;;;7.30;99.90;;;;;;5096904;28;20490;-68
2023/03/29 08:48:17;;;;;;;0.40;0.40;;;7.40;99.90;;;;;;5096509;28;20047;-68
2023/03/29 08:50:47;;;;;;;0.38;0.38;;;7.50;99.90;;;;;;5096563;28;20044;-68
2023/03/29 08:53:19;;;;;;;0.60;0.60;;;7.60;99.90;;;;;;5096690;28;20048;-68
2023/03/29 08:55:47;;;;;;;0.50;0.50;;;7.70;99.90;;;;;;5095100;28;20051;-68
2023/03/29 08:58:19;;;;;;;0.47;0.47;;;7.80;99.90;;;;;;5094985;28;20063;-68
2023/03/29 09:00:49;;;;;;;0.60;0.60;;;8.00;99.90;;;;;;5096434;28;20070;-67
2023/03/29 09:03:27;;;;;;;0.50;0.50;;;8.00;99.90;;;;;;5095726;28;20147;-68
2023/03/29 09:06:08;;;;;;;0.45;0.45;;;8.20;99.90;;;;;;5096685;28;20502;-68
2023/03/29 09:08:44;;;;;;;0.60;0.60;;;8.30;99.90;;;;;;5096786;28;20036;-68
2023/03/29 09:11:33;;;;;;;0.40;0.40;;;8.30;99.90;;;;;;5094750;28;20502;-68
2023/03/29 09:14:31;;;;;;;0.45;0.45;;;8.40;99.90;;;;;;5094817;28;20040;-68
2023/03/29 09:17:18;;;;;;;0.47;0.47;;;8.50;99.90;;;;;;5094883;28;20075;-68
2023/03/29 09:20:00;;;;;;;0.50;0.50;;;8.50;99.90;;;;;;5094903;28;20044;-68
2023/03/29 09:22:50;;;;;;;0.57;0.57;;;8.50;99.90;;;;;;5094937;28;20071;-67
2023/03/29 09:25:27;;;;;;;0.50;0.50;;;8.50;99.90;;;;;;5094824;28;20085;-68
2023/03/29 09:28:34;;;;;;;0.40;0.40;;;8.70;99.90;;;;;;5094509;28;20044;-68
2023/03/29 09:31:14;;;;;;;0.40;0.40;;;8.70;99.90;;;;;;5128477;27;20040;-68
2023/03/29 09:33:43;;;;;;;0.40;0.40;;;8.80;99.90;;;;;;5095931;28;20032;-67
2023/03/29 09:36:15;;;;;;;0.50;0.50;;;8.70;99.90;;;;;;5095376;28;20040;-68
2023/03/29 09:38:45;;;;;;;0.50;0.50;;;9.00;99.90;;;;;;5094226;28;20047;-68
2023/03/29 09:41:23;;;;;;;0.50;0.50;;;9.10;99.90;;;;;;5094184;28;20044;-70
2023/03/29 09:43:50;;;;;;;0.50;0.50;;;9.10;99.90;;;;;;5094048;28;20427;-68
2023/03/29 09:46:44;;;;;;;0.40;0.40;;;9.10;99.90;;;;;;5095603;28;20055;-67
2023/03/29 09:49:16;;;;;;;0.40;0.40;;;9.30;99.90;;;;;;5092391;28;20520;-68
2023/03/29 09:51:44;;;;;;;0.45;0.45;;;9.30;99.90;;;;;;5093941;28;20574;-68
2023/03/29 09:54:11;;;;;;;0.50;0.50;;;9.40;99.90;;;;;;5095420;28;20123;-68
2023/03/29 09:56:38;;;;;;;0.50;0.50;;;9.40;99.90;;;;;;5095305;28;20040;-67
2023/03/29 09:59:04;;;;;;;0.40;0.40;;;9.60;99.90;;;;;;5094160;28;20039;-67
2023/03/29 10:01:38;;;;;;;0.50;0.50;;;9.60;99.90;;;;;;5094636;28;20036;-68
2023/03/29 10:04:06;;;;;;;0.50;0.50;;;9.60;99.90;;;;;;5094008;28;20443;-66
2023/03/29 10:06:33;;;;;;;0.55;0.55;;;9.70;99.90;;;;;;5093704;28;20040;-67
2023/03/29 10:08:59;;;;;;;0.40;0.40;;;9.80;99.90;;;;;;5095196;28;20044;-68
2023/03/29 10:11:31;;;;;;;0.60;0.60;;;9.90;99.90;;;;;;5093582;28;20482;-67
2023/03/29 10:14:03;;;;;;;0.50;0.50;;;9.80;99.90;;;;;;5095061;28;20125;-68
2023/03/29 10:16:34;;;;;;;0.50;0.50;;;9.90;99.90;;;;;;5093565;28;20032;-68
2023/03/29 10:19:20;;;;;;;0.47;0.47;;;9.80;99.90;;;;;;5093480;28;20089;-68
2023/03/29 10:21:51;;;;;;;0.50;0.50;;;9.90;99.90;;;;;;5094931;28;20086;-67
2023/03/29 10:24:19;;;;;;;0.60;0.60;;;9.80;99.90;;;;;;5093516;28;20498;-68
2023/03/29 10:26:46;;;;;;;0.50;0.50;;;9.80;99.90;;;;;;5093170;28;20552;-69
2023/03/29 10:29:12;;;;;;;0.50;0.50;;;9.90;99.90;;;;;;5094808;28;20036;-67
2023/03/29 10:31:41;;;;;;;0.50;0.50;;;9.90;99.90;;;;;;5094451;28;20044;-67
2023/03/29 10:34:11;;;;;;;0.60;0.60;;;10.00;99.90;;;;;;5094627;28;20043;-67
2023/03/29 10:36:41;;;;;;;0.43;0.43;;;10.10;99.90;;;;;;5092945;28;20052;-67
2023/03/29 10:39:09;;;;;;;0.60;0.60;;;10.10;99.90;;;;;;5093050;28;20510;-69
2023/03/29 10:41:35;;;;;;;0.60;0.60;;;10.10;99.90;;;;;;5094046;28;20048;-69
2023/03/29 10:44:02;;;;;;;0.52;0.52;;;10.10;99.90;;;;;;5075831;28;20044;-69
2023/03/29 10:46:40;;;;;;;0.40;0.40;;;10.10;99.90;;;;;;5094487;28;20047;-69
2023/03/29 10:49:17;;;;;;;0.50;0.50;;;10.20;99.90;;;;;;5094561;28;20116;-69
2023/03/29 10:51:50;;;;;;;0.60;0.60;;;10.30;99.90;;;;;;5092937;28;20139;-69
2023/03/29 10:54:20;;;;;;;0.52;0.52;;;10.30;99.90;;;;;;5094292;28;20044;-70
2023/03/29 10:56:56;;;;;;;;;;;10.30;99.90;;;;;;5093089;28;20047;-70
2023/03/29 10:59:35;;;;;;;0.50;0.50;;;10.40;99.90;;;;;;5076010;28;19941;-70
2023/03/29 11:02:06;;;;;;;0.60;0.60;;;10.50;99.90;;;;;;5094177;28;20433;-70
2023/03/29 11:04:56;;;;;;;0.70;0.70;;;10.60;99.90;;;;;;5092590;28;20044;-68
2023/03/29 11:07:54;;;;;;;0.60;0.60;;;10.80;99.90;;;;;;5094133;28;20044;-69
2023/03/29 11:10:25;;;;;;;0.70;0.57;;;10.90;99.90;;;;;;5092507;28;20483;-68
2023/03/29 11:12:57;;;;;;;0.60;0.60;;;10.80;99.90;;;;;;5093631;28;20476;-69
2023/03/29 11:15:31;;;;;;;0.55;0.55;;;10.80;99.90;;;;;;5094753;28;20417;-69
2023/03/29 11:18:21;;;;;;;0.60;0.60;;;11.00;99.90;;;;;;5092342;28;20044;-69
2023/03/29 11:21:08;;;;;;;0.50;0.50;;;11.10;99.90;;;;;;5093962;28;20035;-69
2023/03/29 11:23:48;;;;;;;0.55;0.55;;;11.10;99.90;;;;;;5092752;28;20050;-69
2023/03/29 11:26:26;;;;;;;0.65;0.65;;;11.10;99.90;;;;;;5093834;28;20036;-69
2023/03/29 11:29:07;;;;;;;0.43;0.43;;;11.30;99.90;;;;;;5092611;28;20055;-69
2023/03/29 11:31:40;;;;;;;0.50;0.50;;;11.40;99.90;;;;;;5093038;28;20047;-69
2023/03/29 11:34:20;;;;;;;0.40;0.40;;;11.70;99.90;;;;;;5092250;28;20044;-69
2023/03/29 11:37:07;;;;;;;0.40;0.40;;;11.90;99.90;;;;;;5093387;28;20101;-69
2023/03/29 11:39:45;;;;;;;0.40;0.40;;;11.90;99.90;;;;;;5093413;28;20048;-69
2023/03/29 11:42:25;;;;;;;0.47;0.40;;;11.90;99.90;;;;;;5093664;28;20093;-69
2023/03/29 11:44:53;;;;;;;0.38;0.38;;;12.00;99.90;;;;;;5093644;28;20040;-70
2023/03/29 11:47:26;;;;;;;0.45;0.45;;;12.30;99.90;;;;;;5092282;28;20372;-69
2023/03/29 11:50:05;;;;;;;0.60;0.60;;;12.30;99.90;;;;;;5093588;28;20082;-69
2023/03/29 11:52:42;;;;;;;0.95;0.43;;;12.30;99.90;;;;;;5092022;28;20055;-69
2023/03/29 11:55:21;;;;;;;0.30;0.30;;;12.30;99.90;;;;;;5096045;28;20465;-69
2023/03/29 11:57:52;;;;;;;0.40;0.40;;;12.20;99.90;;;;;;5098195;28;20115;-69
2023/03/29 12:00:43;;;;;;;0.50;0.50;;;12.40;99.90;;;;;;5096427;28;20067;-69
2023/03/29 12:03:16;;;;;;;;;;;12.40;99.90;;;;;;5097586;28;20098;-69
2023/03/29 12:05:46;;;;;;;0.40;0.40;;;12.40;99.90;;;;;;5097233;28;20372;-69
2023/03/29 12:08:23;;;;;;;0.40;0.40;;;12.40;99.90;;;;;;5097521;28;20044;-69
2023/03/29 12:11:00;;;;;;;0.38;0.38;;;12.50;99.90;;;;;;5096050;28;20499;-69
2023/03/29 12:13:31;;;;;;;0.40;0.40;;;12.60;99.90;;;;;;5096218;28;20040;-69
2023/03/29 12:16:16;;;;;;;0.40;0.40;;;12.70;99.90;;;;;;5095831;28;20040;-69
2023/03/29 12:18:46;;;;;;;0.40;0.40;;;12.80;99.90;;;;;;5095747;28;20135;-69
2023/03/29 12:21:17;;;;;;;0.40;0.40;;;12.70;99.90;;;;;;5079035;28;20040;-69
2023/03/29 12:23:44;;;;;;;0.30;0.30;;;12.80;99.90;;;;;;5097225;28;20105;-69
2023/03/29 12:26:18;;;;;;;0.40;0.40;;;12.90;99.90;;;;;;5095579;28;20079;-68
2023/03/29 12:29:04;;;;;;;0.40;0.40;;;13.00;99.90;;;;;;5096794;28;20440;-69
2023/03/29 12:31:36;;;;;;;0.45;0.45;;;13.00;99.90;;;;;;5095599;28;20040;-69
2023/03/29 12:34:41;;;;;;;0.40;0.40;;;13.00;99.90;;;;;;5096969;28;20040;-69
2023/03/29 12:37:22;;;;;;;0.40;0.40;;;13.10;99.90;;;;;;5096069;28;20040;-69
2023/03/29 12:39:50;;;;;;;0.40;0.40;;;13.20;99.90;;;;;;5095400;28;20044;-69
2023/03/29 12:42:19;;;;;;;0.40;0.40;;;13.20;99.90;;;;;;5095562;28;20047;-69
2023/03/29 12:44:50;;;;;;;0.30;0.30;;;13.50;99.90;;;;;;5095366;28;20578;-69
2023/03/29 12:47:23;;;;;;;0.50;0.43;;;13.60;99.90;;;;;;5095551;28;20112;-69
2023/03/29 12:49:56;;;;;;;0.40;0.40;;;13.90;99.90;;;;;;5096735;28;20093;-69
2023/03/29 12:52:32;;;;;;;0.38;0.38;;;13.90;99.90;;;;;;5095405;28;20043;-69
2023/03/29 12:55:23;;;;;;;0.40;0.40;;;13.80;99.90;;;;;;5095108;28;20044;-69
2023/03/29 12:58:09;;;;;;;0.40;0.40;;;13.60;99.90;;;;;;5096312;28;20372;-69
2023/03/29 13:00:43;;;;;;;0.55;0.38;;;13.70;99.90;;;;;;5096471;28;20115;-69
2023/03/29 13:03:39;;;;;;;0.30;0.30;;;13.60;99.90;;;;;;5096440;28;20071;-69
2023/03/29 13:06:09;;;;;;;0.30;0.30;;;13.40;99.90;;;;;;5094128;28;20043;-71
2023/03/29 13:08:36;;;;;;;0.40;0.40;;;13.60;99.90;;;;;;5094779;28;20040;-70
2023/03/29 13:11:03;;;;;;;0.40;0.40;;;13.60;99.90;;;;;;5095127;28;20040;-69
2023/03/29 13:13:33;;;;;;;0.40;0.40;;;13.30;99.90;;;;;;5096270;28;20068;-70
2023/03/29 13:16:17;;;;;;;0.40;0.40;;;13.30;99.90;;;;;;5096220;28;20043;-70